Winchester, Virginia
Current Conditions -  °F | °C
As of 9:55 PM on Wednesday 26 Nov 2014 (Local Time) from KOKV Reporting Station
Haze Haze  
Wind Chill: 34°   Ceiling: 5500
Heat Index: 34°   Visibility: 1.5mi
Dew Point: 30°   Wind: 0mph
Humidity: 87%   Direction: NA
Pressure: 30"   Gusts: NA
Location:  39.18°N, 78.16°W
Report Text: KOKV 270255Z AUTO 00000KT 1 1/2SM BR SCT025 OVC055 01/M01 A3000 RMK AO2 P0001
Loading
Personal Weather Stations






























Interactive Weather Map New forecast layout! Learn more

10-Day Weather Forecast

Advertisements
Track Severe Weather on mobile